Time;durP1;ratioP1;P1;durP2;ratioP2;P2;SDS_P1;SDS_P2;PMS_P1;PMS_P2;Temp;Humidity;BMP_temperature;BMP_pressure;BME280_temperature;BME280_humidity;BME280_pressure;Samples;Min_cycle;Max_cycle;Signal;HPM_P1;HPM_P2
2022/05/18 00:02:23;;;;;;;5.63;2.15;;;;;;;;;;6188495;28;20458;-84
2022/05/18 00:05:23;;;;;;;7.28;2.55;;;;;;;;;;6179923;28;20030;-84
2022/05/18 00:08:23;;;;;;;5.65;2.10;;;;;;;;;;6193437;28;20418;-84
2022/05/18 00:11:23;;;;;;;7.00;1.42;;;;;;;;;;6193907;28;20375;-84
2022/05/18 00:14:24;;;;;;;6.53;1.80;;;;;;;;;;6194300;28;20038;-84
2022/05/18 00:17:24;;;;;;;2.65;1.30;;;;;;;;;;6195569;28;20073;-84
2022/05/18 00:20:24;;;;;;;5.20;1.07;;;;;;;;;;6190253;28;20026;-84
2022/05/18 00:23:25;;;;;;;4.60;2.00;;;;;;;;;;6175273;28;20634;-84
2022/05/18 00:26:25;;;;;;;7.57;2.60;;;;;;;;;;6177224;28;20101;-84
2022/05/18 00:29:25;;;;;;;4.60;1.80;;;;;;;;;;6185557;28;20050;-85
2022/05/18 00:32:26;;;;;;;5.77;1.93;;;;;;;;;;6180994;28;20026;-84
2022/05/18 00:35:26;;;;;;;5.03;1.60;;;;;;;;;;6177972;28;20274;-84
2022/05/18 00:38:27;;;;;;;3.80;1.47;;;;;;;;;;6185422;28;20100;-84
2022/05/18 00:41:27;;;;;;;3.35;1.58;;;;;;;;;;6178179;28;20278;-84
2022/05/18 00:44:28;;;;;;;3.47;1.48;;;;;;;;;;6187827;28;20022;-84
2022/05/18 00:47:28;;;;;;;3.57;1.93;;;;;;;;;;6175383;28;20019;-84
2022/05/18 00:50:31;;;;;;;6.03;2.27;;;;;;;;;;6174931;28;20254;-84
2022/05/18 00:53:36;;;;;;;10.32;3.05;;;;;;;;;;6175040;28;20671;-84
2022/05/18 00:56:42;;;;;;;11.20;3.85;;;;;;;;;;6196204;28;20485;-84
2022/05/18 00:59:44;;;;;;;7.60;2.83;;;;;;;;;;6189555;28;20048;-84
2022/05/18 01:02:46;;;;;;;9.32;3.15;;;;;;;;;;6182942;28;20446;-84
2022/05/18 01:05:51;;;;;;;6.28;3.20;;;;;;;;;;6181334;28;20486;-84
2022/05/18 01:09:02;;;;;;;12.30;3.40;;;;;;;;;;6180375;28;20023;-84
2022/05/18 01:12:04;;;;;;;12.00;3.50;;;;;;;;;;6176092;28;20026;-84
2022/05/18 01:15:09;;;;;;;9.33;4.07;;;;;;;;;;6190951;28;20019;-85
2022/05/18 01:18:12;;;;;;;7.68;3.42;;;;;;;;;;6186576;28;20046;-84
2022/05/18 01:21:12;;;;;;;11.13;3.78;;;;;;;;;;6193679;28;20110;-84
2022/05/18 01:24:24;;;;;;;12.63;4.88;;;;;;;;;;6181040;28;20015;-84
2022/05/18 01:27:25;;;;;;;13.38;4.80;;;;;;;;;;6186678;28;20175;-84
2022/05/18 01:30:26;;;;;;;15.93;4.55;;;;;;;;;;6174203;28;20474;-84
2022/05/18 01:33:26;;;;;;;12.63;4.65;;;;;;;;;;6173905;28;20018;-84
2022/05/18 01:36:27;;;;;;;8.38;3.65;;;;;;;;;;6186429;28;20023;-84
2022/05/18 01:39:46;;;;;;;7.00;3.17;;;;;;;;;;6197720;28;20042;-84
2022/05/18 01:42:48;;;;;;;19.90;3.13;;;;;;;;;;6175497;28;20263;-84
2022/05/18 01:45:54;;;;;;;3.65;1.60;;;;;;;;;;6189839;28;20046;-84
2022/05/18 01:48:54;;;;;;;5.35;2.28;;;;;;;;;;6198121;28;20029;-84
2022/05/18 01:51:55;;;;;;;6.15;2.10;;;;;;;;;;6196161;28;20022;-84
2022/05/18 01:54:56;;;;;;;10.68;2.10;;;;;;;;;;6186483;28;20003;-84
2022/05/18 01:57:56;;;;;;;2.50;1.40;;;;;;;;;;6182123;28;20040;-84
2022/05/18 02:00:56;;;;;;;6.50;2.03;;;;;;;;;;6184626;28;20281;-84
2022/05/18 02:03:56;;;;;;;4.22;1.58;;;;;;;;;;6180638;28;20037;-84
2022/05/18 02:06:57;;;;;;;9.65;2.20;;;;;;;;;;6179547;28;20026;-84
2022/05/18 02:09:58;;;;;;;6.43;2.07;;;;;;;;;;6185555;28;20030;-85
2022/05/18 02:12:58;;;;;;;4.53;2.72;;;;;;;;;;6174017;28;20371;-84
2022/05/18 02:16:01;;;;;;;4.72;2.20;;;;;;;;;;6180379;28;20022;-84
2022/05/18 02:19:01;;;;;;;3.88;1.70;;;;;;;;;;6180107;28;20501;-84
2022/05/18 02:22:01;;;;;;;3.50;1.85;;;;;;;;;;6181771;28;20054;-84
2022/05/18 02:25:02;;;;;;;7.05;1.77;;;;;;;;;;6174648;28;20033;-84
2022/05/18 02:28:03;;;;;;;8.40;2.08;;;;;;;;;;6186409;28;20038;-84
2022/05/18 02:31:03;;;;;;;6.32;2.28;;;;;;;;;;6189921;28;20057;-84
2022/05/18 02:34:04;;;;;;;5.97;1.88;;;;;;;;;;6175321;28;20037;-84
2022/05/18 02:37:04;;;;;;;3.92;2.28;;;;;;;;;;6173196;28;20031;-84
2022/05/18 02:40:06;;;;;;;3.10;1.73;;;;;;;;;;6189265;28;20051;-84
2022/05/18 02:43:06;;;;;;;3.45;1.50;;;;;;;;;;6181928;28;20026;-85
2022/05/18 02:46:11;;;;;;;5.07;1.77;;;;;;;;;;6169770;28;20470;-85
2022/05/18 02:49:11;;;;;;;6.22;1.75;;;;;;;;;;6195054;28;20065;-84
2022/05/18 02:52:12;;;;;;;7.10;2.90;;;;;;;;;;6194078;28;20416;-84
2022/05/18 02:58:42;;;;;;;4.00;1.83;;;;;;;;;;6181534;28;20062;-84
2022/05/18 03:01:42;;;;;;;4.30;1.45;;;;;;;;;;6173486;28;20019;-83
2022/05/18 03:04:42;;;;;;;5.93;1.88;;;;;;;;;;6188770;28;20022;-84
2022/05/18 03:07:43;;;;;;;4.78;1.70;;;;;;;;;;6178637;28;20030;-84
2022/05/18 03:10:43;;;;;;;3.88;1.90;;;;;;;;;;6195836;28;20093;-84
2022/05/18 03:13:44;;;;;;;2.47;1.30;;;;;;;;;;6194582;28;20109;-84
2022/05/18 03:16:44;;;;;;;7.68;2.13;;;;;;;;;;6185424;28;20031;-84
2022/05/18 03:19:44;;;;;;;3.78;2.65;;;;;;;;;;6179752;28;20113;-84
2022/05/18 03:26:06;;;;;;;3.25;1.40;;;;;;;;;;6174343;28;20066;-84
2022/05/18 03:29:06;;;;;;;4.78;1.80;;;;;;;;;;6191770;28;20186;-84
2022/05/18 03:32:07;;;;;;;9.30;2.63;;;;;;;;;;6179926;28;20131;-84
2022/05/18 03:35:07;;;;;;;3.70;1.40;;;;;;;;;;6182585;28;20052;-83
2022/05/18 03:38:08;;;;;;;6.38;1.50;;;;;;;;;;6183043;28;20462;-85
2022/05/18 03:41:08;;;;;;;3.17;1.48;;;;;;;;;;6197584;28;20079;-84
2022/05/18 03:44:08;;;;;;;5.05;1.83;;;;;;;;;;6189108;28;20505;-83
2022/05/18 03:47:09;;;;;;;6.80;2.13;;;;;;;;;;6174753;28;20028;-83
2022/05/18 03:50:09;;;;;;;3.58;1.50;;;;;;;;;;6170077;28;20026;-84
2022/05/18 03:53:10;;;;;;;8.07;1.80;;;;;;;;;;6163322;28;20011;-83
2022/05/18 03:56:11;;;;;;;3.95;1.38;;;;;;;;;;6174913;28;20027;-84
2022/05/18 03:59:11;;;;;;;11.18;2.53;;;;;;;;;;6175219;28;20783;-84
2022/05/18 04:02:11;;;;;;;3.90;2.10;;;;;;;;;;6175274;28;20019;-84
2022/05/18 04:05:11;;;;;;;5.10;1.75;;;;;;;;;;6187231;28;20011;-84
2022/05/18 04:08:12;;;;;;;4.22;1.65;;;;;;;;;;6178348;28;20034;-83
2022/05/18 04:11:12;;;;;;;5.60;1.88;;;;;;;;;;6168665;28;20026;-83
2022/05/18 04:14:13;;;;;;;6.10;2.10;;;;;;;;;;6181031;28;20479;-83
2022/05/18 04:17:13;;;;;;;3.33;1.40;;;;;;;;;;6170642;28;20082;-84
2022/05/18 04:20:14;;;;;;;5.38;1.42;;;;;;;;;;6168875;28;20034;-83
2022/05/18 04:23:15;;;;;;;7.40;1.73;;;;;;;;;;6169900;28;20428;-83
2022/05/18 04:26:15;;;;;;;10.35;1.55;;;;;;;;;;6172502;28;20023;-83
2022/05/18 04:29:16;;;;;;;6.28;1.60;;;;;;;;;;6160753;28;20091;-83
2022/05/18 04:32:16;;;;;;;6.20;1.60;;;;;;;;;;6181847;28;20030;-84
2022/05/18 04:35:17;;;;;;;5.40;1.70;;;;;;;;;;6184962;28;20036;-84
2022/05/18 04:38:19;;;;;;;3.38;1.77;;;;;;;;;;6187849;28;20632;-84
2022/05/18 04:41:19;;;;;;;4.40;1.98;;;;;;;;;;6182371;28;20019;-84
2022/05/18 04:44:19;;;;;;;4.87;1.60;;;;;;;;;;6174804;28;20084;-84
2022/05/18 04:47:20;;;;;;;4.75;1.98;;;;;;;;;;6177596;28;20267;-84
2022/05/18 04:50:20;;;;;;;6.80;1.90;;;;;;;;;;6200088;28;20041;-84
2022/05/18 04:53:21;;;;;;;7.32;1.50;;;;;;;;;;6198699;28;20674;-84
2022/05/18 04:56:22;;;;;;;7.80;1.45;;;;;;;;;;6179712;28;20548;-84
2022/05/18 04:59:22;;;;;;;5.93;1.50;;;;;;;;;;6193941;28;20101;-84
2022/05/18 05:02:22;;;;;;;7.82;1.60;;;;;;;;;;6180325;28;20265;-84
2022/05/18 05:05:24;;;;;;;5.05;1.42;;;;;;;;;;6170677;28;20383;-84
2022/05/18 05:08:24;;;;;;;3.53;1.57;;;;;;;;;;6173967;28;20187;-85
2022/05/18 05:11:24;;;;;;;6.73;1.90;;;;;;;;;;6165011;28;20110;-85
2022/05/18 05:14:24;;;;;;;6.65;2.08;;;;;;;;;;6172385;28;20321;-85
2022/05/18 05:17:25;;;;;;;3.05;2.00;;;;;;;;;;6169803;28;20037;-85
2022/05/18 05:20:26;;;;;;;3.75;1.55;;;;;;;;;;6164904;28;20023;-85
2022/05/18 05:23:26;;;;;;;5.45;1.83;;;;;;;;;;6166215;28;20047;-84
2022/05/18 05:26:27;;;;;;;4.93;1.40;;;;;;;;;;6169773;28;20027;-84
2022/05/18 05:29:27;;;;;;;10.90;1.57;;;;;;;;;;6160688;28;20455;-84
2022/05/18 05:32:27;;;;;;;8.40;1.63;;;;;;;;;;6182474;28;20168;-85
2022/05/18 05:35:28;;;;;;;2.77;1.20;;;;;;;;;;6183588;28;20200;-85
2022/05/18 05:38:28;;;;;;;4.77;1.40;;;;;;;;;;6175641;28;20051;-85
2022/05/18 05:41:28;;;;;;;3.53;1.27;;;;;;;;;;6188561;28;20014;-85
2022/05/18 05:44:29;;;;;;;3.37;1.40;;;;;;;;;;6174248;28;20015;-85
2022/05/18 05:47:29;;;;;;;3.63;1.37;;;;;;;;;;6164078;28;20011;-85
2022/05/18 05:50:30;;;;;;;6.30;1.80;;;;;;;;;;6160053;28;20045;-85
2022/05/18 05:53:32;;;;;;;;;;;;;;;;;;6173279;28;20026;-85
2022/05/18 05:56:32;;;;;;;7.55;1.27;;;;;;;;;;6173646;28;19918;-85
2022/05/18 05:59:33;;;;;;;13.70;1.90;;;;;;;;;;6167180;28;20037;-85
2022/05/18 06:02:33;;;;;;;4.80;1.02;;;;;;;;;;6199277;28;20010;-85
2022/05/18 06:05:33;;;;;;;7.90;1.50;;;;;;;;;;6184642;28;20030;-85
2022/05/18 06:08:34;;;;;;;2.97;1.20;;;;;;;;;;6181957;28;19999;-85
2022/05/18 06:11:34;;;;;;;2.73;1.50;;;;;;;;;;6175562;28;20076;-85
2022/05/18 06:14:35;;;;;;;7.60;1.50;;;;;;;;;;6168757;28;20046;-85
2022/05/18 06:17:35;;;;;;;5.07;1.13;;;;;;;;;;6161496;28;20086;-84
2022/05/18 06:20:35;;;;;;;2.73;1.20;;;;;;;;;;6162569;28;20552;-83
2022/05/18 06:23:36;;;;;;;4.50;1.40;;;;;;;;;;6181594;28;20064;-83
2022/05/18 06:26:37;;;;;;;3.33;1.23;;;;;;;;;;6187182;28;20027;-83
2022/05/18 06:29:37;;;;;;;3.67;1.45;;;;;;;;;;6182742;28;20113;-83
2022/05/18 06:32:37;;;;;;;5.40;1.50;;;;;;;;;;6190458;28;20117;-84
2022/05/18 06:35:38;;;;;;;3.07;1.43;;;;;;;;;;6182987;28;20034;-83
2022/05/18 06:38:38;;;;;;;4.25;1.90;;;;;;;;;;6189633;28;20141;-83
2022/05/18 06:41:39;;;;;;;8.07;1.30;;;;;;;;;;6171251;28;20548;-83
2022/05/18 06:44:39;;;;;;;7.70;1.60;;;;;;;;;;6171091;28;20030;-83
2022/05/18 06:47:39;;;;;;;2.43;1.10;;;;;;;;;;6196458;28;20022;-83
2022/05/18 06:50:40;;;;;;;4.45;2.38;;;;;;;;;;6168302;28;20041;-83
2022/05/18 06:53:41;;;;;;;8.30;2.43;;;;;;;;;;6177269;28;20027;-83
2022/05/18 06:56:41;;;;;;;;;;;;;;;;;;6171408;28;20571;-83
2022/05/18 06:59:41;;;;;;;3.95;1.58;;;;;;;;;;6174443;28;19914;-83
2022/05/18 07:02:43;;;;;;;5.13;1.93;;;;;;;;;;6180617;28;20037;-83
2022/05/18 07:05:43;;;;;;;4.20;1.15;;;;;;;;;;6173498;28;20031;-83
2022/05/18 07:08:44;;;;;;;6.13;1.08;;;;;;;;;;6184165;28;20032;-83
2022/05/18 07:11:46;;;;;;;1.13;0.83;;;;;;;;;;6193779;28;20050;-83
2022/05/18 07:14:46;;;;;;;3.42;1.10;;;;;;;;;;6194090;28;20030;-84
2022/05/18 07:17:46;;;;;;;2.60;0.60;;;;;;;;;;6184926;28;20432;-83
2022/05/18 07:20:47;;;;;;;2.40;1.10;;;;;;;;;;6187550;28;20100;-84
2022/05/18 07:23:47;;;;;;;3.77;1.00;;;;;;;;;;6183888;28;20027;-83
2022/05/18 07:26:47;;;;;;;2.55;1.23;;;;;;;;;;6177678;28;20089;-83
2022/05/18 07:29:47;;;;;;;3.60;1.13;;;;;;;;;;6185815;28;20026;-83
2022/05/18 07:32:48;;;;;;;3.43;1.17;;;;;;;;;;6195379;28;20076;-83
2022/05/18 07:35:49;;;;;;;3.23;1.20;;;;;;;;;;6185718;28;20034;-83
2022/05/18 07:38:50;;;;;;;5.32;1.27;;;;;;;;;;6198356;28;20054;-84
2022/05/18 07:41:51;;;;;;;4.90;1.67;;;;;;;;;;6177873;28;20401;-83
2022/05/18 07:44:51;;;;;;;2.30;1.10;;;;;;;;;;6192726;28;20495;-84
2022/05/18 07:47:54;;;;;;;1.73;1.27;;;;;;;;;;6200946;28;20044;-84
2022/05/18 07:50:54;;;;;;;6.30;2.50;;;;;;;;;;6194483;28;20509;-83
2022/05/18 07:53:55;;;;;;;4.07;2.07;;;;;;;;;;6176600;28;20027;-83
2022/05/18 07:56:55;;;;;;;5.17;1.80;;;;;;;;;;6177933;28;20049;-83
2022/05/18 07:59:59;;;;;;;5.17;1.50;;;;;;;;;;6181834;28;20382;-83
2022/05/18 08:02:59;;;;;;;5.75;2.28;;;;;;;;;;6193202;28;20030;-83
2022/05/18 08:05:59;;;;;;;9.30;2.77;;;;;;;;;;6185923;28;20501;-84
2022/05/18 08:09:00;;;;;;;9.53;2.07;;;;;;;;;;6183302;28;20031;-84
2022/05/18 08:15:20;;;;;;;4.75;2.03;;;;;;;;;;6175210;28;20046;-84
2022/05/18 08:18:20;;;;;;;9.07;1.70;;;;;;;;;;6186054;28;20080;-84
2022/05/18 08:21:20;;;;;;;5.80;1.97;;;;;;;;;;6197901;28;20026;-85
2022/05/18 08:24:21;;;;;;;3.78;2.10;;;;;;;;;;6168131;28;20037;-84
2022/05/18 08:27:21;;;;;;;3.63;1.80;;;;;;;;;;6178527;28;20023;-84
2022/05/18 08:30:21;;;;;;;4.30;1.27;;;;;;;;;;6194786;28;20067;-84
2022/05/18 08:33:22;;;;;;;4.17;1.37;;;;;;;;;;6188582;28;20113;-83
2022/05/18 08:36:25;;;;;;;2.33;1.30;;;;;;;;;;6182815;28;20026;-84
2022/05/18 08:39:25;;;;;;;5.55;1.70;;;;;;;;;;6176656;28;20569;-84
2022/05/18 08:42:25;;;;;;;4.47;2.23;;;;;;;;;;6171938;28;20025;-83
2022/05/18 08:45:28;;;;;;;4.47;2.23;;;;;;;;;;6186097;28;20078;-83
2022/05/18 08:48:38;;;;;;;6.15;2.42;;;;;;;;;;6186898;28;20113;-84
2022/05/18 08:51:45;;;;;;;3.75;1.65;;;;;;;;;;6175600;28;20116;-84
2022/05/18 08:54:49;;;;;;;5.03;2.08;;;;;;;;;;6179829;28;20494;-83
2022/05/18 08:57:49;;;;;;;3.95;1.92;;;;;;;;;;6182822;28;20031;-83
2022/05/18 09:00:53;;;;;;;2.47;1.70;;;;;;;;;;6179432;28;20046;-84
2022/05/18 09:03:59;;;;;;;5.47;1.45;;;;;;;;;;6199114;28;20667;-83
2022/05/18 09:07:03;;;;;;;6.13;2.25;;;;;;;;;;6184390;28;20023;-84
2022/05/18 09:10:12;;;;;;;8.80;2.20;;;;;;;;;;6172967;28;20035;-83
2022/05/18 09:13:13;;;;;;;6.32;1.58;;;;;;;;;;6163169;28;20027;-84
2022/05/18 09:16:27;;;;;;;4.95;1.90;;;;;;;;;;6181200;28;20077;-83
2022/05/18 09:19:36;;;;;;;2.78;1.83;;;;;;;;;;6174883;28;20098;-83
2022/05/18 09:22:59;;;;;;;4.85;1.75;;;;;;;;;;6194412;28;20068;-84
2022/05/18 09:26:18;;;;;;;3.28;1.75;;;;;;;;;;6184062;28;20126;-84
2022/05/18 09:29:18;;;;;;;3.75;1.73;;;;;;;;;;6182186;28;20114;-85
2022/05/18 09:32:25;;;;;;;4.73;2.00;;;;;;;;;;6178928;28;20046;-85
2022/05/18 09:35:31;;;;;;;2.50;1.50;;;;;;;;;;6173821;28;20031;-84
2022/05/18 09:38:31;;;;;;;4.03;1.92;;;;;;;;;;6182724;28;20069;-84
2022/05/18 09:41:38;;;;;;;8.03;1.40;;;;;;;;;;6179963;28;20029;-84
2022/05/18 09:44:47;;;;;;;3.97;1.90;;;;;;;;;;6179257;28;20092;-85
2022/05/18 09:47:58;;;;;;;3.72;1.70;;;;;;;;;;6186497;28;20054;-85
2022/05/18 09:50:59;;;;;;;5.33;1.40;;;;;;;;;;6182742;28;20027;-84
2022/05/18 09:54:00;;;;;;;4.03;1.60;;;;;;;;;;6188110;28;20505;-85
2022/05/18 09:57:18;;;;;;;3.20;1.30;;;;;;;;;;6179248;28;20025;-85
2022/05/18 10:00:21;;;;;;;5.32;2.17;;;;;;;;;;6172200;28;20041;-84
2022/05/18 10:10:11;;;;;;;4.10;1.88;;;;;;;;;;6180248;28;20499;-84
2022/05/18 10:13:15;;;;;;;6.95;1.95;;;;;;;;;;6185566;28;20022;-84
2022/05/18 10:16:18;;;;;;;2.95;1.50;;;;;;;;;;6176282;28;20501;-84
2022/05/18 10:19:26;;;;;;;5.32;1.10;;;;;;;;;;6162094;28;20035;-83
2022/05/18 10:22:27;;;;;;;6.63;2.15;;;;;;;;;;6168375;28;20028;-83
2022/05/18 10:25:30;;;;;;;8.27;2.60;;;;;;;;;;6172727;28;20029;-84
2022/05/18 10:28:30;;;;;;;3.05;1.25;;;;;;;;;;6167664;28;20022;-83
2022/05/18 10:31:33;;;;;;;1.00;0.70;;;;;;;;;;6167291;28;20066;-84
2022/05/18 10:55:16;;;;;;;2.80;1.10;;;;;;;;;;6270059;28;20423;-81
2022/05/18 10:58:24;;;;;;;6.25;1.67;;;;;;;;;;6272914;28;20037;-81
2022/05/18 11:01:32;;;;;;;8.75;1.85;;;;;;;;;;6269239;28;20537;-81
2022/05/18 11:04:54;;;;;;;2.67;1.27;;;;;;;;;;6267657;28;20461;-81
2022/05/18 11:07:55;;;;;;;2.40;1.30;;;;;;;;;;6267327;28;20019;-80
2022/05/18 11:10:55;;;;;;;1.97;0.93;;;;;;;;;;6266008;28;20393;-80
2022/05/18 11:13:55;;;;;;;3.47;1.17;;;;;;;;;;6268715;28;20098;-79
2022/05/18 11:17:07;;;;;;;3.57;1.13;;;;;;;;;;6263912;28;20002;-79
2022/05/18 11:20:20;;;;;;;4.47;1.17;;;;;;;;;;6264962;28;20052;-79
2022/05/18 11:23:43;;;;;;;2.70;1.20;;;;;;;;;;6267014;28;20028;-79
2022/05/18 11:27:02;;;;;;;1.40;0.98;;;;;;;;;;6259225;28;20033;-80
2022/05/18 11:30:02;;;;;;;4.13;1.40;;;;;;;;;;6266599;28;20108;-80
2022/05/18 11:33:11;;;;;;;4.07;1.90;;;;;;;;;;6265763;28;20222;-80
2022/05/18 11:36:12;;;;;;;2.92;1.00;;;;;;;;;;6269045;28;20048;-80
2022/05/18 11:39:15;;;;;;;5.47;2.13;;;;;;;;;;6265827;28;20532;-81
2022/05/18 11:42:44;;;;;;;1.42;1.20;;;;;;;;;;6271941;28;20579;-81
2022/05/18 11:45:52;;;;;;;3.33;0.93;;;;;;;;;;6280140;28;20147;-82
2022/05/18 11:49:16;;;;;;;5.65;1.20;;;;;;;;;;6276842;28;20465;-81
2022/05/18 11:52:29;;;;;;;6.10;1.02;;;;;;;;;;6287745;28;20086;-82
2022/05/18 11:56:04;;;;;;;3.38;0.80;;;;;;;;;;6281898;28;20033;-82
2022/05/18 12:02:20;;;;;;;3.97;1.90;;;;;;;;;;6276127;28;20080;-81
2022/05/18 12:05:26;;;;;;;5.18;2.65;;;;;;;;;;6257042;28;20029;-81
2022/05/18 12:08:45;;;;;;;3.33;2.17;;;;;;;;;;6253087;28;20029;-81
2022/05/18 12:11:46;;;;;;;4.60;1.83;;;;;;;;;;6258333;28;20373;-81
2022/05/18 12:14:56;;;;;;;5.95;1.40;;;;;;;;;;6260904;28;20100;-81
2022/05/18 12:18:01;;;;;;;4.38;1.73;;;;;;;;;;6238829;28;20029;-81
2022/05/18 12:21:07;;;;;;;7.50;1.83;;;;;;;;;;6253660;28;20171;-82
2022/05/18 12:24:08;;;;;;;4.90;2.33;;;;;;;;;;6264697;28;20049;-82
2022/05/18 12:27:10;;;;;;;5.20;2.15;;;;;;;;;;6253192;28;20052;-81
2022/05/18 12:30:13;;;;;;;3.35;1.70;;;;;;;;;;6250628;28;20545;-81
2022/05/18 12:33:13;;;;;;;4.45;1.63;;;;;;;;;;6231411;28;20068;-81
2022/05/18 12:36:24;;;;;;;2.47;1.17;;;;;;;;;;6245262;28;20523;-81
2022/05/18 12:39:25;;;;;;;6.70;2.35;;;;;;;;;;6242393;28;20022;-81
2022/05/18 12:42:28;;;;;;;4.20;1.90;;;;;;;;;;6251108;28;20025;-81
2022/05/18 12:45:40;;;;;;;4.95;1.90;;;;;;;;;;6250382;28;20021;-82
2022/05/18 12:48:46;;;;;;;7.00;1.50;;;;;;;;;;6254090;28;20025;-81
2022/05/18 12:51:55;;;;;;;2.83;1.33;;;;;;;;;;6251781;28;20079;-82
2022/05/18 12:55:01;;;;;;;2.88;1.00;;;;;;;;;;6252700;28;20568;-82
2022/05/18 12:58:20;;;;;;;3.13;1.50;;;;;;;;;;6251780;28;20025;-82
2022/05/18 13:01:21;;;;;;;4.78;1.38;;;;;;;;;;6249984;28;20029;-82
2022/05/18 13:04:22;;;;;;;;;;;;;;;;;;6255306;28;20120;-82
2022/05/18 13:07:27;;;;;;;2.85;1.15;;;;;;;;;;6242606;28;19917;-82
2022/05/18 13:10:28;;;;;;;3.38;1.80;;;;;;;;;;6253341;28;20021;-82
2022/05/18 13:13:33;;;;;;;4.22;1.15;;;;;;;;;;6249293;28;20102;-83
2022/05/18 13:16:37;;;;;;;2.45;1.23;;;;;;;;;;6255229;28;20027;-82
2022/05/18 13:19:38;;;;;;;4.00;1.83;;;;;;;;;;6253209;28;20028;-83
2022/05/18 13:22:45;;;;;;;3.30;1.58;;;;;;;;;;6253340;28;20046;-83
2022/05/18 13:25:48;;;;;;;6.10;1.88;;;;;;;;;;6249012;28;20056;-82
2022/05/18 13:28:50;;;;;;;5.28;1.90;;;;;;;;;;6249002;28;20029;-82
2022/05/18 13:31:52;;;;;;;6.32;1.50;;;;;;;;;;6245920;28;20106;-82
2022/05/18 13:34:58;;;;;;;6.68;1.98;;;;;;;;;;6247590;28;20052;-82
2022/05/18 13:38:02;;;;;;;8.13;1.92;;;;;;;;;;6248750;28;20035;-82
2022/05/18 13:41:06;;;;;;;11.23;1.73;;;;;;;;;;6242681;28;20025;-82
2022/05/18 13:44:06;;;;;;;6.18;1.35;;;;;;;;;;6241031;28;20033;-82
2022/05/18 13:47:09;;;;;;;3.40;1.57;;;;;;;;;;6247909;28;20021;-82
2022/05/18 13:50:42;;;;;;;6.90;1.45;;;;;;;;;;6248494;28;20704;-82
2022/05/18 13:53:47;;;;;;;6.28;1.90;;;;;;;;;;6229901;28;20053;-82
2022/05/18 13:56:49;;;;;;;3.58;2.03;;;;;;;;;;6243923;28;20017;-82
2022/05/18 13:59:52;;;;;;;5.10;1.40;;;;;;;;;;6241326;28;20033;-82
2022/05/18 14:02:56;;;;;;;4.32;1.60;;;;;;;;;;6249908;28;20040;-82
2022/05/18 14:05:57;;;;;;;3.40;1.50;;;;;;;;;;6248975;28;20654;-82
2022/05/18 14:09:05;;;;;;;3.30;1.33;;;;;;;;;;6246974;28;20482;-82
2022/05/18 14:12:05;;;;;;;6.70;1.92;;;;;;;;;;6250972;28;20373;-83
2022/05/18 14:15:07;;;;;;;4.22;1.60;;;;;;;;;;6250450;28;20017;-82
2022/05/18 14:18:09;;;;;;;2.88;1.55;;;;;;;;;;6250313;28;20025;-82
2022/05/18 14:21:11;;;;;;;5.22;1.60;;;;;;;;;;6250638;28;20474;-82
2022/05/18 14:24:22;;;;;;;6.95;1.45;;;;;;;;;;6247942;28;20320;-82
2022/05/18 14:27:28;;;;;;;3.80;1.20;;;;;;;;;;6232440;28;20018;-82
2022/05/18 14:30:34;;;;;;;9.85;1.65;;;;;;;;;;6249395;28;20021;-82
2022/05/18 14:33:41;;;;;;;6.78;1.60;;;;;;;;;;6241673;28;20127;-82
2022/05/18 14:36:53;;;;;;;4.50;1.70;;;;;;;;;;6248923;28;20103;-82
2022/05/18 14:39:54;;;;;;;7.88;1.80;;;;;;;;;;6250226;28;20018;-82
2022/05/18 14:42:55;;;;;;;7.45;1.42;;;;;;;;;;6249133;28;20017;-82
2022/05/18 14:45:55;;;;;;;;;;;;;;;;;;6250679;28;20057;-82
2022/05/18 14:49:01;;;;;;;5.83;1.67;;;;;;;;;;6247049;28;19958;-82
2022/05/18 14:52:03;;;;;;;5.88;1.92;;;;;;;;;;6246545;28;20477;-82
2022/05/18 14:55:08;;;;;;;5.55;2.75;;;;;;;;;;6240336;28;20053;-82
2022/05/18 14:58:10;;;;;;;5.25;2.00;;;;;;;;;;6246792;28;20025;-82
2022/05/18 15:01:20;;;;;;;5.05;1.67;;;;;;;;;;6245580;28;20025;-82
2022/05/18 15:04:26;;;;;;;6.33;1.90;;;;;;;;;;6244490;28;20030;-81
2022/05/18 15:07:28;;;;;;;3.53;1.95;;;;;;;;;;6245277;28;20014;-82
2022/05/18 15:10:35;;;;;;;7.22;1.70;;;;;;;;;;6247325;28;20492;-81
2022/05/18 15:13:39;;;;;;;3.53;1.77;;;;;;;;;;6238510;28;20400;-81
2022/05/18 15:16:43;;;;;;;13.10;2.42;;;;;;;;;;6245253;28;20017;-82
2022/05/18 15:19:45;;;;;;;12.18;2.33;;;;;;;;;;6242099;28;20399;-82
2022/05/18 15:22:52;;;;;;;5.95;2.10;;;;;;;;;;6241588;28;20028;-82
2022/05/18 15:25:59;;;;;;;8.00;1.98;;;;;;;;;;6244916;28;20033;-81
2022/05/18 15:29:01;;;;;;;3.85;1.75;;;;;;;;;;6244505;28;20021;-82
2022/05/18 15:32:01;;;;;;;6.15;1.83;;;;;;;;;;6243080;28;20414;-82
2022/05/18 15:35:05;;;;;;;4.10;1.70;;;;;;;;;;6242558;28;20312;-82
2022/05/18 15:38:05;;;;;;;8.38;2.28;;;;;;;;;;6244443;28;20030;-82
2022/05/18 15:41:05;;;;;;;3.83;1.83;;;;;;;;;;6244262;28;20043;-81
2022/05/18 15:44:06;;;;;;;5.90;2.53;;;;;;;;;;6252291;28;20017;-82
2022/05/18 15:47:11;;;;;;;5.27;1.80;;;;;;;;;;6249872;28;20059;-81
2022/05/18 15:50:14;;;;;;;5.45;1.58;;;;;;;;;;6245612;28;20033;-80
2022/05/18 15:53:20;;;;;;;4.82;2.05;;;;;;;;;;6246984;28;20485;-80
2022/05/18 15:56:22;;;;;;;9.25;1.92;;;;;;;;;;6244349;28;20018;-80
2022/05/18 15:59:22;;;;;;;6.82;2.03;;;;;;;;;;6251301;28;20435;-80
2022/05/18 16:02:23;;;;;;;3.87;1.37;;;;;;;;;;6236586;28;20429;-82
2022/05/18 16:05:24;;;;;;;5.53;1.60;;;;;;;;;;6257164;28;20025;-82
2022/05/18 16:08:25;;;;;;;6.25;2.03;;;;;;;;;;6247279;28;20025;-82
2022/05/18 16:11:30;;;;;;;5.57;2.47;;;;;;;;;;6246665;28;20075;-81
2022/05/18 16:14:30;;;;;;;5.00;1.73;;;;;;;;;;6245658;28;20033;-81
2022/05/18 16:17:33;;;;;;;4.40;1.53;;;;;;;;;;6245351;28;20441;-82
2022/05/18 16:20:33;;;;;;;4.68;2.20;;;;;;;;;;6244525;28;20025;-81
2022/05/18 16:23:34;;;;;;;4.10;2.40;;;;;;;;;;6253242;28;20140;-81
2022/05/18 16:26:35;;;;;;;6.20;1.83;;;;;;;;;;6239451;28;20021;-81
2022/05/18 16:29:36;;;;;;;5.32;2.75;;;;;;;;;;6250640;28;20445;-81
2022/05/18 16:32:36;;;;;;;6.07;2.13;;;;;;;;;;6252398;28;20033;-81
2022/05/18 16:35:37;;;;;;;6.10;1.87;;;;;;;;;;6254296;28;20032;-81
2022/05/18 16:38:37;;;;;;;4.13;1.50;;;;;;;;;;6252380;28;20025;-81
2022/05/18 16:41:38;;;;;;;6.87;1.60;;;;;;;;;;6254123;28;20029;-81
2022/05/18 16:44:38;;;;;;;3.30;1.73;;;;;;;;;;6251475;28;20417;-81
2022/05/18 16:47:41;;;;;;;5.10;1.93;;;;;;;;;;6249405;28;20033;-82
2022/05/18 16:50:41;;;;;;;5.97;1.50;;;;;;;;;;6256599;28;20021;-81
2022/05/18 16:53:41;;;;;;;3.87;1.73;;;;;;;;;;6249796;28;20810;-81
2022/05/18 16:56:43;;;;;;;6.13;1.60;;;;;;;;;;6241732;28;20020;-81
2022/05/18 16:59:44;;;;;;;2.95;1.70;;;;;;;;;;6249980;28;20623;-81
2022/05/18 17:02:44;;;;;;;4.70;1.80;;;;;;;;;;6247728;28;20028;-81
2022/05/18 17:09:05;;;;;;;3.97;2.50;;;;;;;;;;6246268;28;20037;-81
2022/05/18 17:12:06;;;;;;;4.03;1.58;;;;;;;;;;6247808;28;20018;-82
2022/05/18 17:15:07;;;;;;;10.53;2.63;;;;;;;;;;6249602;28;20020;-81
2022/05/18 17:18:07;;;;;;;9.23;2.63;;;;;;;;;;6248509;28;20021;-81
2022/05/18 17:21:08;;;;;;;6.80;2.77;;;;;;;;;;6247103;28;20025;-81
2022/05/18 17:24:08;;;;;;;3.03;2.20;;;;;;;;;;6249539;28;20541;-81
2022/05/18 17:27:12;;;;;;;8.73;2.60;;;;;;;;;;6236154;28;20079;-81
2022/05/18 17:30:14;;;;;;;5.18;2.33;;;;;;;;;;6250734;28;20013;-81
2022/05/18 17:33:14;;;;;;;;;;;;;;;;;;6251110;28;20032;-81
2022/05/18 17:36:15;;;;;;;6.03;1.60;;;;;;;;;;6250174;28;19913;-81
2022/05/18 17:39:15;;;;;;;4.57;1.40;;;;;;;;;;6249441;28;20022;-81
2022/05/18 17:42:15;;;;;;;3.70;1.60;;;;;;;;;;6246793;28;20061;-81
2022/05/18 17:45:15;;;;;;;5.87;2.17;;;;;;;;;;6251909;28;20072;-80
2022/05/18 17:48:19;;;;;;;5.40;1.40;;;;;;;;;;6248175;28;20489;-80
2022/05/18 17:51:19;;;;;;;4.38;1.58;;;;;;;;;;6242011;28;20025;-81
2022/05/18 17:54:19;;;;;;;8.53;1.90;;;;;;;;;;6242373;28;20045;-80
2022/05/18 17:57:23;;;;;;;4.30;1.80;;;;;;;;;;6247813;28;20055;-80
2022/05/18 18:00:23;;;;;;;6.20;2.60;;;;;;;;;;6246542;28;20037;-80
2022/05/18 18:03:26;;;;;;;10.80;3.00;;;;;;;;;;6248712;28;20040;-80
2022/05/18 18:06:26;;;;;;;10.63;3.60;;;;;;;;;;6246164;28;20095;-79
2022/05/18 18:09:27;;;;;;;11.20;4.40;;;;;;;;;;6247466;28;20013;-81
2022/05/18 18:12:28;;;;;;;17.98;5.70;;;;;;;;;;6252707;28;20469;-81
2022/05/18 18:15:30;;;;;;;15.03;5.03;;;;;;;;;;6260209;28;20243;-81
2022/05/18 18:18:31;;;;;;;26.80;9.02;;;;;;;;;;6242611;28;20021;-80
2022/05/18 18:21:32;;;;;;;15.23;4.87;;;;;;;;;;6244729;28;20452;-81
2022/05/18 18:24:32;;;;;;;10.50;3.33;;;;;;;;;;6247256;28;20374;-81
2022/05/18 18:27:36;;;;;;;9.13;3.03;;;;;;;;;;6250953;28;20100;-81
2022/05/18 18:30:36;;;;;;;12.88;4.07;;;;;;;;;;6252767;28;20100;-81
2022/05/18 18:33:38;;;;;;;6.10;3.40;;;;;;;;;;6244462;28;20462;-81
2022/05/18 18:36:42;;;;;;;11.40;2.72;;;;;;;;;;6248634;28;20009;-81
2022/05/18 18:39:45;;;;;;;6.60;2.33;;;;;;;;;;6244072;28;20540;-81
2022/05/18 18:42:47;;;;;;;7.82;3.17;;;;;;;;;;6241199;28;20068;-81
2022/05/18 18:49:09;;;;;;;7.10;3.33;;;;;;;;;;6243593;28;20025;-80
2022/05/18 18:55:31;;;;;;;15.93;4.78;;;;;;;;;;6252107;28;20053;-80
2022/05/18 18:58:33;;;;;;;11.60;3.47;;;;;;;;;;6245861;28;20500;-80
2022/05/18 19:01:33;;;;;;;11.75;3.88;;;;;;;;;;6251931;28;20033;-80
2022/05/18 19:04:34;;;;;;;7.43;3.13;;;;;;;;;;6251828;28;20033;-80
2022/05/18 19:07:35;;;;;;;18.58;4.07;;;;;;;;;;6242787;28;20271;-80